Time,TemperatureF,DewpointF,PressureIn,WindDirection,WindDirectionDegrees,WindSpeedMPH,WindSpeedGustMPH,Humidity,HourlyPrecipIn,Conditions,Clouds,dailyrainin,SoftwareType,DateUTC
2013-04-29 00:01:00,57.0,51.8,29.91,SSE,158,0.0,0.0,83,0.00,,,0.00,WUHU216HW,2013-04-29 04:01:00,
2013-04-29 00:06:00,57.0,51.8,29.91,SSE,158,0.0,0.0,83,0.00,,,0.00,WUHU216HW,2013-04-29 04:06:00,
2013-04-29 00:11:00,56.8,51.6,29.91,SE,135,0.0,0.0,83,0.00,,,0.00,WUHU216HW,2013-04-29 04:11:00,
2013-04-29 00:16:00,56.8,51.6,29.91,SE,135,0.0,0.0,83,0.00,,,0.00,WUHU216HW,2013-04-29 04:16:00,
2013-04-29 00:21:00,56.8,51.6,29.91,SE,135,0.0,0.0,83,0.00,,,0.00,WUHU216HW,2013-04-29 04:21:00,
2013-04-29 00:26:00,56.8,51.6,29.91,SSE,158,0.0,0.0,83,0.00,,,0.00,WUHU216HW,2013-04-29 04:26:00,
2013-04-29 00:31:00,57.0,52.1,29.91,SSE,158,0.0,0.0,84,0.00,,,0.00,WUHU216HW,2013-04-29 04:31:00,
2013-04-29 00:36:00,56.8,52.0,29.91,SSE,158,0.0,0.0,84,0.00,,,0.00,WUHU216HW,2013-04-29 04:36:00,
2013-04-29 00:41:00,56.8,52.0,29.91,ESE,113,0.0,0.0,84,0.00,,,0.00,WUHU216HW,2013-04-29 04:41:00,
2013-04-29 00:46:00,56.8,52.0,29.91,SE,135,0.0,0.0,84,0.00,,,0.00,WUHU216HW,2013-04-29 04:46:00,
2013-04-29 00:51:00,56.8,52.0,29.91,SE,135,0.0,0.0,84,0.00,,,0.00,WUHU216HW,2013-04-29 04:51:00,
2013-04-29 00:56:00,56.8,52.0,29.91,SE,135,0.0,0.0,84,0.00,,,0.00,WUHU216HW,2013-04-29 04:56:00,
2013-04-29 01:01:00,56.8,52.0,29.91,SE,135,0.0,0.0,84,0.00,,,0.00,WUHU216HW,2013-04-29 05:01:00,
2013-04-29 01:06:00,56.8,52.0,29.91,SSE,158,0.0,0.0,84,0.00,,,0.00,WUHU216HW,2013-04-29 05:06:00,
2013-04-29 01:11:00,56.8,52.0,29.91,SSE,158,0.0,0.0,84,0.00,,,0.00,WUHU216HW,2013-04-29 05:11:00,
2013-04-29 01:16:00,56.8,52.0,29.91,SSE,158,0.0,0.0,84,0.00,,,0.00,WUHU216HW,2013-04-29 05:16:00,
2013-04-29 01:21:00,56.8,52.0,29.91,SE,135,0.0,0.0,84,0.00,,,0.00,WUHU216HW,2013-04-29 05:21:00,
2013-04-29 01:26:00,56.8,52.0,29.91,SE,135,0.0,0.0,84,0.00,,,0.00,WUHU216HW,2013-04-29 05:26:00,
2013-04-29 01:31:00,56.8,52.0,29.91,SE,135,0.0,0.0,84,0.00,,,0.00,WUHU216HW,2013-04-29 05:31:00,
2013-04-29 01:36:00,56.8,52.0,29.91,ESE,113,0.0,0.0,84,0.00,,,0.00,WUHU216HW,2013-04-29 05:36:00,
2013-04-29 01:41:00,56.8,52.0,29.91,ESE,113,0.0,0.0,84,0.00,,,0.00,WUHU216HW,2013-04-29 05:41:00,
2013-04-29 01:46:00,56.8,52.0,29.91,SSE,158,0.0,0.0,84,0.00,,,0.00,WUHU216HW,2013-04-29 05:46:00,
2013-04-29 01:51:00,56.8,52.0,29.91,SSE,158,0.0,0.0,84,0.00,,,0.00,WUHU216HW,2013-04-29 05:51:00,
2013-04-29 01:56:00,56.6,51.8,29.91,SSE,158,0.0,0.0,84,0.00,,,0.00,WUHU216HW,2013-04-29 05:56:00,
2013-04-29 02:01:00,56.6,52.1,29.91,SSE,158,0.0,0.0,84,0.00,,,0.00,WUHU216HW,2013-04-29 06:01:00,
2013-04-29 02:06:00,56.8,52.3,29.91,SSE,158,0.0,0.0,85,0.00,,,0.00,WUHU216HW,2013-04-29 06:06:00,
2013-04-29 02:11:00,56.6,52.1,29.91,SSE,158,0.0,0.0,85,0.00,,,0.00,WUHU216HW,2013-04-29 06:11:00,
2013-04-29 02:16:00,56.6,52.1,29.91,SSE,158,0.0,0.0,85,0.00,,,0.00,WUHU216HW,2013-04-29 06:16:00,
2013-04-29 02:21:00,56.6,52.1,29.91,SSE,158,0.0,0.0,85,0.00,,,0.00,WUHU216HW,2013-04-29 06:21:00,
2013-04-29 02:26:00,56.8,52.1,29.91,South,180,0.0,0.0,85,0.00,,,0.00,WUHU216HW,2013-04-29 06:26:00,
2013-04-29 02:31:00,56.6,52.1,29.91,SE,135,0.0,0.0,85,0.00,,,0.00,WUHU216HW,2013-04-29 06:31:00,
2013-04-29 02:36:00,56.6,52.1,29.91,South,180,0.0,0.0,85,0.00,,,0.00,WUHU216HW,2013-04-29 06:36:00,
2013-04-29 02:41:00,56.6,52.1,29.91,SSE,158,0.0,0.0,85,0.00,,,0.00,WUHU216HW,2013-04-29 06:41:00,
2013-04-29 02:46:00,56.6,52.1,29.91,SSE,158,0.0,0.0,85,0.00,,,0.00,WUHU216HW,2013-04-29 06:46:00,
2013-04-29 02:51:00,56.6,52.4,29.91,SSE,158,0.0,0.0,86,0.00,,,0.00,WUHU216HW,2013-04-29 06:51:00,
2013-04-29 02:56:00,56.8,52.6,29.91,ESE,113,0.0,0.0,86,0.00,,,0.00,WUHU216HW,2013-04-29 06:56:00,
2013-04-29 03:01:00,56.6,52.4,29.91,SSE,158,0.0,0.0,86,0.00,,,0.00,WUHU216HW,2013-04-29 07:01:00,
2013-04-29 03:06:00,56.8,52.6,29.91,SSE,158,0.0,0.0,86,0.00,,,0.00,WUHU216HW,2013-04-29 07:06:00,
2013-04-29 03:11:00,56.8,52.6,29.91,SSE,158,0.0,0.0,86,0.00,,,0.00,WUHU216HW,2013-04-29 07:11:00,
2013-04-29 03:16:00,56.8,52.4,29.91,South,180,0.0,0.0,86,0.00,,,0.00,WUHU216HW,2013-04-29 07:16:00,
2013-04-29 03:21:00,56.8,52.9,29.91,South,180,0.0,0.0,87,0.00,,,0.00,WUHU216HW,2013-04-29 07:21:00,
2013-04-29 03:26:00,56.8,52.9,29.91,South,180,0.0,0.0,87,0.00,,,0.00,WUHU216HW,2013-04-29 07:26:00,
2013-04-29 03:31:00,56.8,52.9,29.92,SSW,203,0.0,2.6,87,0.00,,,0.00,WUHU216HW,2013-04-29 07:31:00,
2013-04-29 03:36:00,56.8,52.9,29.92,South,180,0.0,2.6,87,0.00,,,0.00,WUHU216HW,2013-04-29 07:36:00,
2013-04-29 03:41:00,56.8,52.9,29.92,South,180,0.0,0.0,87,0.00,,,0.00,WUHU216HW,2013-04-29 07:41:00,
2013-04-29 03:46:00,56.8,52.9,29.92,South,180,0.0,0.0,87,0.00,,,0.00,WUHU216HW,2013-04-29 07:46:00,
2013-04-29 03:51:00,56.6,52.8,29.92,SE,135,0.0,0.0,87,0.00,,,0.00,WUHU216HW,2013-04-29 07:51:00,
2013-04-29 03:56:00,56.6,52.8,29.92,SSE,158,0.0,0.0,87,0.00,,,0.00,WUHU216HW,2013-04-29 07:56:00,
2013-04-29 04:01:00,56.6,52.8,29.92,SSW,203,0.0,0.0,87,0.00,,,0.00,WUHU216HW,2013-04-29 08:01:00,
2013-04-29 04:06:00,56.6,52.8,29.92,SSW,203,0.0,0.0,87,0.00,,,0.00,WUHU216HW,2013-04-29 08:06:00,
2013-04-29 04:11:00,56.6,53.1,29.92,South,180,0.0,0.0,88,0.00,,,0.00,WUHU216HW,2013-04-29 08:11:00,
2013-04-29 04:16:00,56.6,53.1,29.92,SSE,158,0.0,0.0,88,0.00,,,0.00,WUHU216HW,2013-04-29 08:16:00,
2013-04-29 04:21:00,56.6,53.1,29.92,SSW,203,0.0,0.0,88,0.00,,,0.00,WUHU216HW,2013-04-29 08:21:00,
2013-04-29 04:26:00,56.6,53.1,29.92,SSW,203,0.0,0.0,88,0.00,,,0.00,WUHU216HW,2013-04-29 08:26:00,
2013-04-29 04:31:00,56.6,53.1,29.92,SSW,203,0.0,0.0,88,0.00,,,0.00,WUHU216HW,2013-04-29 08:31:00,
2013-04-29 04:36:00,56.6,53.1,29.92,SSW,203,0.0,1.5,88,0.00,,,0.00,WUHU216HW,2013-04-29 08:36:00,
2013-04-29 04:41:00,56.4,52.9,29.92,South,180,0.0,1.5,88,0.00,,,0.00,WUHU216HW,2013-04-29 08:41:00,
2013-04-29 04:46:00,56.6,53.1,29.92,South,180,0.0,0.0,88,0.00,,,0.00,WUHU216HW,2013-04-29 08:46:00,
2013-04-29 04:51:00,56.4,52.9,29.92,South,180,0.0,2.0,88,0.00,,,0.00,WUHU216HW,2013-04-29 08:51:00,
2013-04-29 04:56:00,56.4,52.9,29.92,WSW,248,0.0,2.0,88,0.00,,,0.00,WUHU216HW,2013-04-29 08:56:00,
2013-04-29 05:01:00,56.4,52.9,29.92,South,180,0.0,2.0,88,0.00,,,0.00,WUHU216HW,2013-04-29 09:01:00,
2013-04-29 05:06:00,56.4,52.9,29.92,WSW,248,0.0,2.0,88,0.00,,,0.00,WUHU216HW,2013-04-29 09:06:00,
2013-04-29 05:11:00,56.4,52.7,29.93,South,180,0.0,3.1,88,0.00,,,0.00,WUHU216HW,2013-04-29 09:11:00,
2013-04-29 05:16:00,56.3,53.0,29.93,SSW,203,0.0,3.1,89,0.00,,,0.00,WUHU216HW,2013-04-29 09:16:00,
2013-04-29 05:21:00,56.3,53.0,29.93,SSW,203,2.6,2.6,89,0.00,,,0.00,WUHU216HW,2013-04-29 09:21:00,
2013-04-29 05:26:00,56.3,53.0,29.93,South,180,0.0,4.0,89,0.00,,,0.00,WUHU216HW,2013-04-29 09:26:00,
2013-04-29 05:31:00,56.3,53.0,29.93,SSW,203,0.0,4.0,89,0.00,,,0.00,WUHU216HW,2013-04-29 09:31:00,
2013-04-29 05:36:00,56.3,53.0,29.93,WSW,248,0.0,0.0,89,0.00,,,0.00,WUHU216HW,2013-04-29 09:36:00,
2013-04-29 05:41:00,56.3,53.0,29.93,SSW,203,0.0,0.0,89,0.00,,,0.00,WUHU216HW,2013-04-29 09:41:00,
2013-04-29 05:46:00,56.3,53.0,29.93,SE,135,0.0,0.0,89,0.00,,,0.00,WUHU216HW,2013-04-29 09:46:00,
2013-04-29 05:51:00,56.3,53.0,29.93,South,180,0.0,0.0,89,0.00,,,0.00,WUHU216HW,2013-04-29 09:51:00,
2013-04-29 05:56:00,56.3,53.0,29.93,SSW,203,2.4,2.4,89,0.00,,,0.00,WUHU216HW,2013-04-29 09:56:00,
2013-04-29 06:01:00,56.3,53.0,29.93,SSW,203,0.0,2.4,89,0.00,,,0.00,WUHU216HW,2013-04-29 10:01:00,
2013-04-29 06:06:00,56.3,53.0,29.93,South,180,0.0,2.6,89,0.00,,,0.00,WUHU216HW,2013-04-29 10:06:00,
2013-04-29 06:11:00,56.3,53.4,29.93,SSW,203,0.0,2.6,90,0.00,,,0.00,WUHU216HW,2013-04-29 10:11:00,
2013-04-29 06:16:00,56.3,53.4,29.93,South,180,0.0,0.0,90,0.00,,,0.00,WUHU216HW,2013-04-29 10:16:00,
2013-04-29 06:21:00,56.3,53.7,29.94,SSW,203,0.0,0.0,91,0.00,,,0.00,WUHU216HW,2013-04-29 10:21:00,
2013-04-29 06:26:00,56.3,53.4,29.94,SSW,203,0.0,0.0,90,0.00,,,0.00,WUHU216HW,2013-04-29 10:26:00,
2013-04-29 06:31:00,56.3,53.4,29.94,South,180,0.0,0.0,90,0.00,,,0.00,WUHU216HW,2013-04-29 10:31:00,
2013-04-29 06:36:00,56.3,53.4,29.94,South,180,0.0,0.0,90,0.00,,,0.00,WUHU216HW,2013-04-29 10:36:00,
2013-04-29 06:41:00,56.3,53.4,29.94,WSW,248,0.0,0.0,90,0.00,,,0.00,WUHU216HW,2013-04-29 10:41:00,
2013-04-29 06:46:00,56.3,53.4,29.95,South,180,0.0,0.0,90,0.00,,,0.00,WUHU216HW,2013-04-29 10:46:00,
2013-04-29 06:51:00,56.3,53.4,29.95,SW,225,0.0,0.0,90,0.00,,,0.00,WUHU216HW,2013-04-29 10:51:00,
2013-04-29 06:56:00,56.3,53.4,29.95,SSW,203,0.0,0.0,90,0.00,,,0.00,WUHU216HW,2013-04-29 10:56:00,
2013-04-29 07:01:00,56.3,53.4,29.95,South,180,0.0,0.0,90,0.00,,,0.00,WUHU216HW,2013-04-29 11:01:00,
2013-04-29 07:06:00,56.1,53.2,29.95,SSW,203,0.0,0.0,90,0.00,,,0.00,WUHU216HW,2013-04-29 11:06:00,
2013-04-29 07:11:00,56.3,53.7,29.95,SSW,203,0.0,0.0,91,0.00,,,0.00,WUHU216HW,2013-04-29 11:11:00,
2013-04-29 07:16:00,56.3,53.4,29.95,South,180,0.0,0.0,90,0.00,,,0.00,WUHU216HW,2013-04-29 11:16:00,
2013-04-29 07:21:00,56.3,53.4,29.95,SSW,203,0.0,1.5,90,0.00,,,0.00,WUHU216HW,2013-04-29 11:21:00,
2013-04-29 07:26:00,56.3,53.4,29.95,SSW,203,0.0,1.5,90,0.00,,,0.00,WUHU216HW,2013-04-29 11:26:00,
2013-04-29 07:31:00,56.3,53.4,29.95,SW,225,0.0,0.0,90,0.00,,,0.00,WUHU216HW,2013-04-29 11:31:00,
2013-04-29 07:36:00,56.3,53.4,29.96,SSW,203,0.0,0.0,90,0.00,,,0.00,WUHU216HW,2013-04-29 11:36:00,
2013-04-29 07:41:00,56.3,53.4,29.96,SSW,203,0.0,0.0,90,0.00,,,0.00,WUHU216HW,2013-04-29 11:41:00,
2013-04-29 07:46:00,56.3,53.4,29.96,SW,225,0.0,0.0,90,0.00,,,0.00,WUHU216HW,2013-04-29 11:46:00,
2013-04-29 07:51:00,56.3,53.4,29.96,SSW,203,0.0,0.0,90,0.00,,,0.00,WUHU216HW,2013-04-29 11:51:00,
2013-04-29 07:56:00,56.3,53.4,29.96,South,180,0.0,0.0,90,0.00,,,0.00,WUHU216HW,2013-04-29 11:56:00,
2013-04-29 08:01:00,56.4,53.8,29.96,SSW,203,0.0,0.0,91,0.00,,,0.00,WUHU216HW,2013-04-29 12:01:00,
2013-04-29 08:06:00,56.6,54.0,29.96,South,180,0.0,0.0,91,0.00,,,0.00,WUHU216HW,2013-04-29 12:06:00,
2013-04-29 08:11:00,56.6,54.0,29.96,South,180,0.0,1.1,91,0.00,,,0.00,WUHU216HW,2013-04-29 12:11:00,
2013-04-29 08:16:00,56.6,54.0,29.96,South,180,0.0,1.1,91,0.00,,,0.00,WUHU216HW,2013-04-29 12:16:00,
2013-04-29 08:21:00,56.8,54.2,29.97,SW,225,0.0,0.0,91,0.00,,,0.00,WUHU216HW,2013-04-29 12:21:00,
2013-04-29 08:26:00,56.8,54.2,29.97,SW,225,0.0,0.0,91,0.00,,,0.00,WUHU216HW,2013-04-29 12:26:00,
2013-04-29 08:31:00,56.8,54.2,29.97,North,0,0.0,0.0,91,0.00,,,0.00,WUHU216HW,2013-04-29 12:31:00,
2013-04-29 08:36:00,56.8,54.2,29.97,South,180,0.0,0.0,91,0.00,,,0.00,WUHU216HW,2013-04-29 12:36:00,
2013-04-29 08:41:00,56.8,54.2,29.97,WSW,248,0.0,0.0,91,0.00,,,0.00,WUHU216HW,2013-04-29 12:41:00,
2013-04-29 08:46:00,56.8,54.2,29.97,SW,225,0.0,0.0,91,0.00,,,0.00,WUHU216HW,2013-04-29 12:46:00,
2013-04-29 08:51:00,56.8,54.2,29.97,SW,225,3.3,3.3,91,0.00,,,0.00,WUHU216HW,2013-04-29 12:51:00,
2013-04-29 08:56:00,56.8,54.2,29.97,South,180,0.0,3.3,91,0.00,,,0.00,WUHU216HW,2013-04-29 12:56:00,
2013-04-29 09:01:00,56.8,54.2,29.97,SW,225,0.0,0.0,91,0.00,,,0.00,WUHU216HW,2013-04-29 13:01:00,
2013-04-29 09:06:00,56.8,54.2,29.97,SW,225,0.0,0.0,91,0.00,,,0.00,WUHU216HW,2013-04-29 13:06:00,
2013-04-29 09:11:00,56.6,54.0,29.97,SW,225,0.0,3.5,91,0.00,,,0.00,WUHU216HW,2013-04-29 13:11:00,
2013-04-29 09:16:00,56.6,53.7,29.98,South,180,0.0,3.5,90,0.00,,,0.00,WUHU216HW,2013-04-29 13:16:00,
2013-04-29 09:21:00,56.6,53.7,29.97,SSW,203,0.0,0.0,90,0.00,,,0.00,WUHU216HW,2013-04-29 13:21:00,
2013-04-29 09:26:00,56.6,53.7,29.98,SW,225,0.0,0.0,90,0.00,,,0.00,WUHU216HW,2013-04-29 13:26:00,
2013-04-29 09:31:00,56.6,53.7,29.98,SSW,203,0.0,0.0,90,0.00,,,0.00,WUHU216HW,2013-04-29 13:31:00,
2013-04-29 09:36:00,56.8,53.9,29.98,SSW,203,0.0,0.0,90,0.00,,,0.00,WUHU216HW,2013-04-29 13:36:00,
2013-04-29 09:41:00,56.6,53.7,29.98,SW,225,0.0,0.0,90,0.00,,,0.00,WUHU216HW,2013-04-29 13:41:00,
2013-04-29 09:46:00,56.8,53.9,29.98,South,180,0.0,0.0,90,0.00,,,0.00,WUHU216HW,2013-04-29 13:46:00,
2013-04-29 09:51:00,57.0,54.1,29.98,South,180,0.0,0.0,90,0.00,,,0.00,WUHU216HW,2013-04-29 13:51:00,
2013-04-29 09:56:00,57.2,54.3,29.98,SW,225,0.0,1.5,90,0.00,,,0.00,WUHU216HW,2013-04-29 13:56:00,
2013-04-29 10:01:00,57.2,54.1,29.98,WSW,248,0.0,1.5,90,0.00,,,0.00,WUHU216HW,2013-04-29 14:01:00,
2013-04-29 10:06:00,57.3,54.5,29.98,WSW,248,0.0,1.3,90,0.00,,,0.00,WUHU216HW,2013-04-29 14:06:00,
2013-04-29 10:11:00,57.2,54.3,29.98,WSW,248,0.0,1.3,90,0.00,,,0.00,WUHU216HW,2013-04-29 14:11:00,
2013-04-29 10:16:00,57.3,54.5,29.98,SW,225,0.0,0.0,90,0.00,,,0.00,WUHU216HW,2013-04-29 14:16:00,
2013-04-29 10:21:00,57.3,54.5,29.98,SW,225,0.0,0.0,90,0.00,,,0.00,WUHU216HW,2013-04-29 14:21:00,
2013-04-29 10:26:00,57.5,54.6,29.98,WSW,248,0.0,0.0,90,0.00,,,0.00,WUHU216HW,2013-04-29 14:26:00,
2013-04-29 10:31:00,57.9,55.0,29.97,South,180,0.0,0.0,90,0.00,,,0.00,WUHU216HW,2013-04-29 14:31:00,
2013-04-29 10:36:00,58.4,55.2,29.98,SW,225,0.0,3.3,89,0.00,,,0.00,WUHU216HW,2013-04-29 14:36:00,
2013-04-29 10:41:00,58.6,55.4,29.98,West,270,0.0,3.3,89,0.00,,,0.00,WUHU216HW,2013-04-29 14:41:00,
2013-04-29 10:46:00,59.0,55.7,29.98,WSW,248,0.0,3.1,89,0.00,,,0.00,WUHU216HW,2013-04-29 14:46:00,
2013-04-29 10:51:00,59.1,55.6,29.98,South,180,0.0,3.3,88,0.00,,,0.00,WUHU216HW,2013-04-29 14:51:00,
2013-04-29 10:56:00,59.1,55.3,29.98,SSW,203,0.0,5.1,87,0.00,,,0.00,WUHU216HW,2013-04-29 14:56:00,
2013-04-29 11:01:00,59.1,55.3,29.98,SSW,203,0.0,5.1,87,0.00,,,0.00,WUHU216HW,2013-04-29 15:01:00,
2013-04-29 11:06:00,59.5,55.3,29.99,SSW,203,0.0,0.0,86,0.00,,,0.00,WUHU216HW,2013-04-29 15:06:00,
2013-04-29 11:11:00,59.7,55.5,29.99,SW,225,0.0,4.0,86,0.00,,,0.00,WUHU216HW,2013-04-29 15:11:00,
2013-04-29 11:16:00,59.7,55.2,29.99,South,180,0.0,4.0,84,0.00,,,0.00,WUHU216HW,2013-04-29 15:16:00,
2013-04-29 11:21:00,59.7,54.8,29.99,SW,225,0.0,0.0,84,0.00,,,0.00,WUHU216HW,2013-04-29 15:21:00,
2013-04-29 11:26:00,59.7,54.5,29.99,South,180,0.0,0.0,83,0.00,,,0.00,WUHU216HW,2013-04-29 15:26:00,
2013-04-29 11:31:00,59.7,54.5,29.99,SSW,203,1.3,1.3,83,0.00,,,0.00,WUHU216HW,2013-04-29 15:31:00,
2013-04-29 11:36:00,59.3,53.8,29.99,SSW,203,0.0,4.6,82,0.00,,,0.00,WUHU216HW,2013-04-29 15:36:00,
2013-04-29 11:41:00,59.3,53.8,29.99,South,180,1.5,4.6,82,0.00,,,0.00,WUHU216HW,2013-04-29 15:41:00,
2013-04-29 11:46:00,59.3,53.8,29.99,South,180,0.0,2.2,82,0.00,,,0.00,WUHU216HW,2013-04-29 15:46:00,
2013-04-29 11:51:00,59.5,54.0,29.99,South,180,0.0,2.2,82,0.00,,,0.00,WUHU216HW,2013-04-29 15:51:00,
2013-04-29 11:56:00,59.5,54.3,29.99,West,270,0.0,1.3,83,0.00,,,0.00,WUHU216HW,2013-04-29 15:56:00,
2013-04-29 12:01:00,59.5,54.3,29.99,West,270,0.0,0.0,83,0.00,,,0.00,WUHU216HW,2013-04-29 16:01:00,
2013-04-29 12:06:00,59.5,54.3,30.00,West,270,0.0,2.9,83,0.00,,,0.00,WUHU216HW,2013-04-29 16:06:00,
2013-04-29 12:11:00,59.3,54.2,30.00,South,180,2.0,2.9,83,0.00,,,0.00,WUHU216HW,2013-04-29 16:11:00,
2013-04-29 12:16:00,59.0,53.8,29.99,SSW,203,0.0,2.4,83,0.00,,,0.00,WUHU216HW,2013-04-29 16:16:00,
2013-04-29 12:21:00,59.0,53.8,29.99,SSW,203,0.0,6.0,83,0.00,,,0.00,WUHU216HW,2013-04-29 16:21:00,
2013-04-29 12:26:00,59.1,54.0,29.99,SSW,203,0.8,6.0,83,0.00,,,0.00,WUHU216HW,2013-04-29 16:26:00,
2013-04-29 12:31:00,59.1,54.3,29.99,SSW,203,0.0,2.0,84,0.00,,,0.00,WUHU216HW,2013-04-29 16:31:00,
2013-04-29 12:36:00,59.0,54.1,29.99,SSE,158,0.0,2.0,84,0.00,,,0.00,WUHU216HW,2013-04-29 16:36:00,
2013-04-29 12:41:00,58.8,53.9,29.99,WSW,248,0.0,0.0,84,0.00,,,0.00,WUHU216HW,2013-04-29 16:41:00,
2013-04-29 12:46:00,58.8,53.9,29.99,SW,225,0.0,4.9,84,0.00,,,0.00,WUHU216HW,2013-04-29 16:46:00,
2013-04-29 12:51:00,58.6,53.8,29.99,SSW,203,0.0,4.9,84,0.00,,,0.00,WUHU216HW,2013-04-29 16:51:00,
2013-04-29 12:56:00,59.1,54.3,29.99,SSW,203,0.0,0.0,84,0.00,,,0.00,WUHU216HW,2013-04-29 16:56:00,
2013-04-29 13:01:00,59.5,55.0,29.99,South,180,0.0,0.0,85,0.00,,,0.00,WUHU216HW,2013-04-29 17:01:00,
2013-04-29 13:06:00,59.9,55.4,29.99,SSW,203,0.0,2.2,85,0.00,,,0.00,WUHU216HW,2013-04-29 17:06:00,
2013-04-29 13:11:00,60.0,55.2,29.99,South,180,0.0,2.2,84,0.00,,,0.00,WUHU216HW,2013-04-29 17:11:00,
2013-04-29 13:16:00,60.0,55.2,29.99,WSW,248,0.0,0.0,84,0.00,,,0.00,WUHU216HW,2013-04-29 17:16:00,
2013-04-29 13:21:00,60.4,55.6,29.99,West,270,0.0,0.0,84,0.00,,,0.00,WUHU216HW,2013-04-29 17:21:00,
2013-04-29 13:26:00,60.9,56.4,29.99,West,270,0.0,0.0,85,0.00,,,0.00,WUHU216HW,2013-04-29 17:26:00,
2013-04-29 13:31:00,61.5,56.9,29.99,WSW,248,0.0,0.0,85,0.00,,,0.00,WUHU216HW,2013-04-29 17:31:00,
2013-04-29 13:36:00,61.8,56.9,29.99,SSW,203,0.0,0.0,84,0.00,,,0.00,WUHU216HW,2013-04-29 17:36:00,
2013-04-29 13:41:00,62.2,56.9,29.99,SW,225,0.0,2.4,83,0.00,,,0.00,WUHU216HW,2013-04-29 17:41:00,
2013-04-29 13:46:00,62.4,56.8,29.98,SSW,203,0.0,2.4,82,0.00,,,0.00,WUHU216HW,2013-04-29 17:46:00,
2013-04-29 13:51:00,62.6,56.6,29.99,South,180,0.0,2.0,81,0.00,,,0.00,WUHU216HW,2013-04-29 17:51:00,
2013-04-29 13:56:00,62.7,56.4,29.99,SW,225,0.0,2.0,80,0.00,,,0.00,WUHU216HW,2013-04-29 17:56:00,
2013-04-29 14:01:00,62.7,56.1,29.99,SSE,158,0.0,1.5,79,0.00,,,0.00,WUHU216HW,2013-04-29 18:01:00,
2013-04-29 14:06:00,62.9,55.9,29.99,SSW,203,1.3,1.5,78,0.00,,,0.00,WUHU216HW,2013-04-29 18:06:00,
2013-04-29 14:11:00,63.1,55.7,29.99,South,180,0.0,1.3,77,0.00,,,0.00,WUHU216HW,2013-04-29 18:11:00,
2013-04-29 14:16:00,63.3,55.5,29.99,SSE,158,0.0,0.0,76,0.00,,,0.00,WUHU216HW,2013-04-29 18:16:00,
2013-04-29 14:21:00,63.8,56.1,29.99,South,180,0.0,1.1,76,0.00,,,0.00,WUHU216HW,2013-04-29 18:21:00,
2013-04-29 14:26:00,64.0,55.9,29.99,South,180,0.0,1.1,75,0.00,,,0.00,WUHU216HW,2013-04-29 18:26:00,
2013-04-29 14:31:00,64.5,56.4,29.99,South,180,0.0,0.0,75,0.00,,,0.00,WUHU216HW,2013-04-29 18:31:00,
2013-04-29 14:36:00,64.7,56.2,29.98,South,180,0.0,0.0,74,0.00,,,0.00,WUHU216HW,2013-04-29 18:36:00,
2013-04-29 14:41:00,65.3,56.2,29.98,SE,135,0.0,1.7,73,0.00,,,0.00,WUHU216HW,2013-04-29 18:41:00,
2013-04-29 14:46:00,65.4,56.2,29.98,SW,225,0.0,1.7,72,0.00,,,0.00,WUHU216HW,2013-04-29 18:46:00,
2013-04-29 14:51:00,65.8,55.7,29.98,SSW,203,0.0,0.0,70,0.00,,,0.00,WUHU216HW,2013-04-29 18:51:00,
2013-04-29 14:56:00,65.8,55.3,29.98,SW,225,0.0,1.3,69,0.00,,,0.00,WUHU216HW,2013-04-29 18:56:00,
2013-04-29 15:01:00,66.0,55.1,29.97,SSE,158,0.0,1.3,68,0.00,,,0.00,WUHU216HW,2013-04-29 19:01:00,
2013-04-29 15:06:00,66.3,55.8,29.97,SSE,158,0.0,0.0,69,0.00,,,0.00,WUHU216HW,2013-04-29 19:06:00,
2013-04-29 15:11:00,66.5,56.0,29.97,SW,225,0.0,0.0,69,0.00,,,0.00,WUHU216HW,2013-04-29 19:11:00,
2013-04-29 15:16:00,66.9,55.5,29.97,SW,225,0.0,0.0,67,0.00,,,0.00,WUHU216HW,2013-04-29 19:16:00,
2013-04-29 15:21:00,67.2,55.4,29.97,SE,135,0.0,0.0,66,0.00,,,0.00,WUHU216HW,2013-04-29 19:21:00,
2013-04-29 15:26:00,67.6,55.8,29.97,WNW,293,0.0,0.0,66,0.00,,,0.00,WUHU216HW,2013-04-29 19:26:00,
2013-04-29 15:31:00,68.1,56.3,29.97,SSE,158,0.0,0.0,66,0.00,,,0.00,WUHU216HW,2013-04-29 19:31:00,
2013-04-29 15:36:00,68.1,55.9,29.97,SW,225,0.0,0.0,65,0.00,,,0.00,WUHU216HW,2013-04-29 19:36:00,
2013-04-29 15:41:00,68.1,55.4,29.97,SSW,203,0.0,0.0,64,0.00,,,0.00,WUHU216HW,2013-04-29 19:41:00,
2013-04-29 15:46:00,67.4,54.3,29.97,South,180,0.0,0.0,63,0.00,,,0.00,WUHU216HW,2013-04-29 19:46:00,
2013-04-29 15:51:00,66.9,54.7,29.97,SSE,158,0.0,0.0,65,0.00,,,0.00,WUHU216HW,2013-04-29 19:51:00,
2013-04-29 15:56:00,66.5,53.9,29.97,SSE,158,0.0,0.0,64,0.00,,,0.00,WUHU216HW,2013-04-29 19:56:00,
2013-04-29 16:01:00,66.0,53.4,29.97,SSE,158,0.0,0.0,64,0.00,,,0.00,WUHU216HW,2013-04-29 20:01:00,
2013-04-29 16:06:00,65.6,53.5,29.97,SW,225,0.0,0.0,65,0.00,,,0.00,WUHU216HW,2013-04-29 20:06:00,
2013-04-29 16:11:00,65.3,53.1,29.96,WSW,248,2.4,2.4,65,0.00,,,0.00,WUHU216HW,2013-04-29 20:11:00,
2013-04-29 16:16:00,64.2,53.0,29.97,West,270,0.0,2.9,67,0.00,,,0.00,WUHU216HW,2013-04-29 20:16:00,
2013-04-29 16:21:00,62.9,52.2,29.97,NW,315,0.0,2.9,68,0.00,,,0.00,WUHU216HW,2013-04-29 20:21:00,
2013-04-29 16:26:00,62.2,51.9,29.97,WNW,293,0.0,0.0,69,0.00,,,0.00,WUHU216HW,2013-04-29 20:26:00,
2013-04-29 16:31:00,61.7,52.6,29.97,WNW,293,0.0,0.0,72,0.00,,,0.00,WUHU216HW,2013-04-29 20:31:00,
2013-04-29 16:36:00,61.1,52.4,29.97,WNW,293,0.0,0.0,73,0.00,,,0.00,WUHU216HW,2013-04-29 20:36:00,
2013-04-29 16:41:00,61.1,52.8,29.97,WNW,293,0.0,0.0,74,0.00,,,0.00,WUHU216HW,2013-04-29 20:41:00,
2013-04-29 16:46:00,61.1,53.2,29.97,WNW,293,0.0,0.0,75,0.00,,,0.00,WUHU216HW,2013-04-29 20:46:00,
2013-04-29 16:51:00,60.9,53.4,29.97,WNW,293,0.0,0.0,76,0.00,,,0.00,WUHU216HW,2013-04-29 20:51:00,
2013-04-29 16:56:00,60.9,53.7,29.96,West,270,0.0,0.0,77,0.00,,,0.00,WUHU216HW,2013-04-29 20:56:00,
2013-04-29 17:01:00,61.1,54.2,29.97,WNW,293,0.0,0.0,78,0.00,,,0.00,WUHU216HW,2013-04-29 21:01:00,
2013-04-29 17:06:00,61.3,54.6,29.97,West,270,0.0,0.0,78,0.00,,,0.00,WUHU216HW,2013-04-29 21:06:00,
2013-04-29 17:11:00,61.7,55.1,29.97,West,270,0.0,0.0,79,0.00,,,0.00,WUHU216HW,2013-04-29 21:11:00,
2013-04-29 17:16:00,62.0,55.0,29.97,West,270,0.0,0.0,78,0.00,,,0.00,WUHU216HW,2013-04-29 21:16:00,
2013-04-29 17:21:00,62.7,55.7,29.97,West,270,0.0,0.0,78,0.00,,,0.00,WUHU216HW,2013-04-29 21:21:00,
2013-04-29 17:26:00,62.9,55.9,29.97,West,270,0.0,0.0,78,0.00,,,0.00,WUHU216HW,2013-04-29 21:26:00,
2013-04-29 17:31:00,63.3,56.3,29.97,West,270,0.0,0.0,78,0.00,,,0.00,WUHU216HW,2013-04-29 21:31:00,
2013-04-29 17:36:00,63.8,56.4,29.97,West,270,0.0,0.0,77,0.00,,,0.00,WUHU216HW,2013-04-29 21:36:00,
2013-04-29 17:41:00,64.0,56.3,29.96,WSW,248,0.0,0.0,76,0.00,,,0.00,WUHU216HW,2013-04-29 21:41:00,
2013-04-29 17:46:00,64.4,56.3,29.97,WNW,293,0.0,0.0,75,0.00,,,0.00,WUHU216HW,2013-04-29 21:46:00,
2013-04-29 17:51:00,64.5,56.1,29.97,West,270,0.0,0.0,74,0.00,,,0.00,WUHU216HW,2013-04-29 21:51:00,
2013-04-29 17:56:00,65.1,56.2,29.97,West,270,0.0,0.0,73,0.00,,,0.00,WUHU216HW,2013-04-29 21:56:00,
2013-04-29 18:01:00,65.3,56.4,29.97,West,270,0.0,0.0,73,0.00,,,0.00,WUHU216HW,2013-04-29 22:01:00,
2013-04-29 18:06:00,65.3,55.6,29.97,West,270,0.0,0.0,71,0.00,,,0.00,WUHU216HW,2013-04-29 22:06:00,
2013-04-29 18:11:00,65.4,55.8,29.97,West,270,0.0,0.0,71,0.00,,,0.00,WUHU216HW,2013-04-29 22:11:00,
2013-04-29 18:16:00,65.3,56.0,29.97,West,270,0.0,0.0,72,0.00,,,0.00,WUHU216HW,2013-04-29 22:16:00,
2013-04-29 18:21:00,65.4,55.8,29.97,West,270,0.0,0.0,71,0.00,,,0.00,WUHU216HW,2013-04-29 22:21:00,
2013-04-29 18:26:00,65.3,55.3,29.97,West,270,0.0,0.0,70,0.00,,,0.00,WUHU216HW,2013-04-29 22:26:00,
2013-04-29 18:31:00,64.9,55.3,29.97,West,270,0.0,0.0,71,0.00,,,0.00,WUHU216HW,2013-04-29 22:31:00,
2013-04-29 18:36:00,64.7,55.1,29.97,West,270,0.0,0.0,72,0.00,,,0.00,WUHU216HW,2013-04-29 22:36:00,
2013-04-29 18:41:00,64.7,55.5,29.97,West,270,0.0,0.0,72,0.00,,,0.00,WUHU216HW,2013-04-29 22:41:00,
2013-04-29 18:46:00,64.5,55.3,29.97,WNW,293,0.0,0.0,72,0.00,,,0.00,WUHU216HW,2013-04-29 22:46:00,
2013-04-29 18:51:00,64.7,55.5,29.97,WNW,293,0.0,0.0,72,0.00,,,0.00,WUHU216HW,2013-04-29 22:51:00,
2013-04-29 18:56:00,64.5,55.3,29.97,WNW,293,0.0,0.0,72,0.00,,,0.00,WUHU216HW,2013-04-29 22:56:00,
2013-04-29 19:01:00,64.5,55.3,29.98,WNW,293,0.0,0.0,72,0.00,,,0.00,WUHU216HW,2013-04-29 23:01:00,
2013-04-29 19:06:00,64.5,55.3,29.97,WNW,293,0.0,0.0,72,0.00,,,0.00,WUHU216HW,2013-04-29 23:06:00,
2013-04-29 19:11:00,64.5,55.7,29.98,WNW,293,0.0,0.0,73,0.00,,,0.00,WUHU216HW,2013-04-29 23:11:00,
2013-04-29 19:16:00,64.5,55.7,29.98,WNW,293,0.0,0.0,73,0.00,,,0.00,WUHU216HW,2013-04-29 23:16:00,
2013-04-29 19:21:00,64.4,55.4,29.98,WNW,293,0.0,0.0,73,0.00,,,0.00,WUHU216HW,2013-04-29 23:21:00,
2013-04-29 19:26:00,64.0,55.2,29.98,WNW,293,0.0,0.0,73,0.00,,,0.00,WUHU216HW,2013-04-29 23:26:00,
2013-04-29 19:31:00,63.8,55.0,29.98,WNW,293,0.0,0.0,73,0.00,,,0.00,WUHU216HW,2013-04-29 23:31:00,
2013-04-29 19:36:00,63.6,54.8,29.98,WNW,293,0.0,0.0,73,0.00,,,0.00,WUHU216HW,2013-04-29 23:36:00,
2013-04-29 19:41:00,63.6,54.8,29.98,WNW,293,0.0,0.0,73,0.00,,,0.00,WUHU216HW,2013-04-29 23:41:00,
2013-04-29 19:46:00,63.3,54.5,29.98,WNW,293,0.0,0.0,73,0.00,,,0.00,WUHU216HW,2013-04-29 23:46:00,
2013-04-29 19:51:00,63.1,54.3,29.98,WNW,293,0.0,0.0,73,0.00,,,0.00,WUHU216HW,2013-04-29 23:51:00,
2013-04-29 19:56:00,62.9,54.1,29.99,South,180,0.0,0.0,73,0.00,,,0.00,WUHU216HW,2013-04-29 23:56:00,
2013-04-29 20:01:00,62.6,53.9,29.99,SSE,158,0.0,0.0,73,0.00,,,0.00,WUHU216HW,2013-04-30 00:01:00,
2013-04-29 20:06:00,62.4,53.6,29.99,SSE,158,0.0,0.0,73,0.00,,,0.00,WUHU216HW,2013-04-30 00:06:00,
2013-04-29 20:11:00,62.2,53.4,29.99,SSE,158,0.0,0.0,73,0.00,,,0.00,WUHU216HW,2013-04-30 00:11:00,
2013-04-29 20:16:00,61.8,53.1,29.98,SSE,158,0.0,0.0,73,0.00,,,0.00,WUHU216HW,2013-04-30 00:16:00,
2013-04-29 20:21:00,61.7,52.9,29.98,SSE,158,0.0,0.0,73,0.00,,,0.00,WUHU216HW,2013-04-30 00:21:00,
2013-04-29 20:26:00,61.5,52.8,29.98,SSE,158,0.0,0.0,73,0.00,,,0.00,WUHU216HW,2013-04-30 00:26:00,
2013-04-29 20:31:00,61.5,53.5,29.99,SSE,158,0.0,0.0,75,0.00,,,0.00,WUHU216HW,2013-04-30 00:31:00,
2013-04-29 20:36:00,61.1,53.2,29.99,SSE,158,0.0,0.0,75,0.00,,,0.00,WUHU216HW,2013-04-30 00:36:00,
2013-04-29 20:41:00,61.1,53.2,29.99,SSE,158,0.0,0.0,75,0.00,,,0.00,WUHU216HW,2013-04-30 00:41:00,
2013-04-29 20:46:00,60.9,53.0,29.99,SSE,158,0.0,0.0,75,0.00,,,0.00,WUHU216HW,2013-04-30 00:46:00,
2013-04-29 20:51:00,60.8,52.8,29.99,SSE,158,0.0,0.0,75,0.00,,,0.00,WUHU216HW,2013-04-30 00:51:00,
2013-04-29 20:56:00,60.4,52.1,29.99,SSE,158,0.0,0.0,74,0.00,,,0.00,WUHU216HW,2013-04-30 00:56:00,
2013-04-29 21:01:00,60.4,52.2,29.99,SSE,158,0.0,0.0,74,0.00,,,0.00,WUHU216HW,2013-04-30 01:01:00,
2013-04-29 21:06:00,60.2,51.8,29.99,SSE,158,0.0,0.0,74,0.00,,,0.00,WUHU216HW,2013-04-30 01:06:00,
2013-04-29 21:11:00,59.9,51.6,29.99,SSE,158,0.0,0.0,74,0.00,,,0.00,WUHU216HW,2013-04-30 01:11:00,
2013-04-29 21:16:00,59.9,51.6,29.99,SSE,158,0.0,0.0,74,0.00,,,0.00,WUHU216HW,2013-04-30 01:16:00,
2013-04-29 21:21:00,59.7,51.8,29.99,SSE,158,0.0,0.0,75,0.00,,,0.00,WUHU216HW,2013-04-30 01:21:00,
2013-04-29 21:26:00,59.5,51.6,30.00,SSE,158,0.0,0.0,75,0.00,,,0.00,WUHU216HW,2013-04-30 01:26:00,
2013-04-29 21:31:00,59.3,51.4,30.00,SSE,158,0.0,0.0,75,0.00,,,0.00,WUHU216HW,2013-04-30 01:31:00,
2013-04-29 21:36:00,59.1,51.2,30.00,SSE,158,0.0,0.0,75,0.00,,,0.00,WUHU216HW,2013-04-30 01:36:00,
2013-04-29 21:41:00,59.1,51.2,30.00,SSE,158,0.0,0.0,75,0.00,,,0.00,WUHU216HW,2013-04-30 01:41:00,
2013-04-29 21:46:00,59.0,51.4,30.01,SSE,158,0.0,0.0,76,0.00,,,0.00,WUHU216HW,2013-04-30 01:46:00,
2013-04-29 21:51:00,58.8,51.2,30.01,SSE,158,0.0,0.0,76,0.00,,,0.00,WUHU216HW,2013-04-30 01:51:00,
2013-04-29 21:56:00,58.6,51.0,30.01,SSE,158,0.0,0.0,76,0.00,,,0.00,WUHU216HW,2013-04-30 01:56:00,
2013-04-29 22:01:00,58.6,51.0,30.01,SSE,158,0.0,0.0,76,0.00,,,0.00,WUHU216HW,2013-04-30 02:01:00,
2013-04-29 22:06:00,58.4,50.9,30.01,SSE,158,0.0,0.0,76,0.00,,,0.00,WUHU216HW,2013-04-30 02:06:00,
2013-04-29 22:11:00,58.4,50.9,30.01,SSE,158,0.0,0.0,76,0.00,,,0.00,WUHU216HW,2013-04-30 02:11:00,
2013-04-29 22:16:00,58.2,50.7,30.01,SSE,158,0.0,0.0,76,0.00,,,0.00,WUHU216HW,2013-04-30 02:16:00,
2013-04-29 22:21:00,58.1,50.5,30.01,SSE,158,0.0,0.0,76,0.00,,,0.00,WUHU216HW,2013-04-30 02:21:00,
2013-04-29 22:26:00,58.1,50.5,30.01,SSE,158,0.0,0.0,76,0.00,,,0.00,WUHU216HW,2013-04-30 02:26:00,
2013-04-29 22:31:00,57.9,50.7,30.02,SSE,158,0.0,0.0,77,0.00,,,0.00,WUHU216HW,2013-04-30 02:31:00,
2013-04-29 22:36:00,57.9,50.7,30.01,SSE,158,0.0,0.0,77,0.00,,,0.00,WUHU216HW,2013-04-30 02:36:00,
2013-04-29 22:41:00,57.5,50.3,30.02,SSE,158,0.0,0.0,77,0.00,,,0.00,WUHU216HW,2013-04-30 02:41:00,
2013-04-29 22:46:00,57.5,50.7,30.01,SSE,158,0.0,0.0,78,0.00,,,0.00,WUHU216HW,2013-04-30 02:46:00,
2013-04-29 22:51:00,57.3,50.5,30.01,SSE,158,0.0,0.0,78,0.00,,,0.00,WUHU216HW,2013-04-30 02:51:00,
2013-04-29 22:56:00,57.3,50.5,30.01,SSE,158,0.0,0.0,78,0.00,,,0.00,WUHU216HW,2013-04-30 02:56:00,
2013-04-29 23:01:00,57.2,50.3,30.01,SSE,158,0.0,0.0,78,0.00,,,0.00,WUHU216HW,2013-04-30 03:01:00,
2013-04-29 23:06:00,57.2,50.3,30.01,SSE,158,0.0,0.0,78,0.00,,,0.00,WUHU216HW,2013-04-30 03:06:00,
2013-04-29 23:11:00,57.2,50.3,30.01,SSE,158,0.0,0.0,78,0.00,,,0.00,WUHU216HW,2013-04-30 03:11:00,
2013-04-29 23:16:00,56.8,50.1,30.01,SSE,158,0.0,0.0,78,0.00,,,0.00,WUHU216HW,2013-04-30 03:16:00,
2013-04-29 23:21:00,56.8,50.3,30.01,SSE,158,0.0,0.0,79,0.00,,,0.00,WUHU216HW,2013-04-30 03:21:00,
2013-04-29 23:26:00,56.8,50.3,30.01,SSE,158,0.0,0.0,79,0.00,,,0.00,WUHU216HW,2013-04-30 03:26:00,
2013-04-29 23:31:00,56.6,50.1,30.01,SSE,158,0.0,0.0,79,0.00,,,0.00,WUHU216HW,2013-04-30 03:31:00,
2013-04-29 23:36:00,56.6,50.1,30.01,SSE,158,0.0,0.0,79,0.00,,,0.00,WUHU216HW,2013-04-30 03:36:00,
2013-04-29 23:41:00,56.6,50.1,30.01,SE,135,0.0,0.0,79,0.00,,,0.00,WUHU216HW,2013-04-30 03:41:00,
2013-04-29 23:46:00,56.6,50.1,30.01,SE,135,0.0,0.0,79,0.00,,,0.00,WUHU216HW,2013-04-30 03:46:00,
2013-04-29 23:51:00,56.4,50.0,30.01,SE,135,0.0,0.0,79,0.00,,,0.00,WUHU216HW,2013-04-30 03:51:00,
2013-04-29 23:56:00,56.4,50.3,30.01,SE,135,0.0,0.0,80,0.00,,,0.00,WUHU216HW,2013-04-30 03:56:00,